createdAt,value
2019-04-13T00:02:38.484Z,15.80
2019-04-13T00:05:34.826Z,15.27
2019-04-13T00:08:12.228Z,15.53
2019-04-13T00:11:04.294Z,17.02
2019-04-13T00:13:49.680Z,17.12
2019-04-13T00:16:22.632Z,15.90
2019-04-13T00:18:55.103Z,15.90
2019-04-13T00:21:27.757Z,15.60
2019-04-13T00:24:02.516Z,16.73
2019-04-13T00:26:35.153Z,16.83
2019-04-13T00:29:07.637Z,16.90
2019-04-13T00:31:40.532Z,17.20
2019-04-13T00:34:13.055Z,15.90
2019-04-13T00:36:51.406Z,17.10
2019-04-13T00:39:26.877Z,18.20
2019-04-13T00:42:01.371Z,17.27
2019-04-13T00:44:35.461Z,17.27
2019-04-13T00:47:08.699Z,17.33
2019-04-13T00:49:43.685Z,18.85
2019-04-13T00:52:21.645Z,17.95
2019-04-13T00:54:58.177Z,17.60
2019-04-13T00:57:31.401Z,19.52
2019-04-13T01:00:07.865Z,18.93
2019-04-13T01:02:40.523Z,19.43
2019-04-13T01:05:15.190Z,18.27
2019-04-13T01:07:49.134Z,17.73
2019-04-13T01:10:23.375Z,18.77
2019-04-13T01:12:58.426Z,18.60
2019-04-13T01:15:33.796Z,18.07
2019-04-13T01:18:07.105Z,19.37
2019-04-13T01:20:39.603Z,18.27
2019-04-13T01:23:15.489Z,18.77
2019-04-13T01:25:50.556Z,19.57
2019-04-13T01:28:24.590Z,19.43
2019-04-13T01:31:02.281Z,19.27
2019-04-13T01:33:35.766Z,20.57
2019-04-13T01:36:09.883Z,19.23
2019-04-13T01:38:46.274Z,19.97
2019-04-13T01:41:20.371Z,19.87
2019-04-13T01:43:56.185Z,20.70
2019-04-13T01:46:31.799Z,19.50
2019-04-13T01:49:05.714Z,17.80
2019-04-13T01:51:43.158Z,19.27
2019-04-13T01:54:17.643Z,18.10
2019-04-13T01:56:50.885Z,18.60
2019-04-13T01:59:27.599Z,19.17
2019-04-13T02:02:40.535Z,19.25
2019-04-13T02:05:27.988Z,19.62
2019-04-13T02:08:26.985Z,18.23
2019-04-13T02:11:04.997Z,17.60
2019-04-13T02:13:38.654Z,17.20
2019-04-13T02:16:13.570Z,21.23
2019-04-13T02:18:46.411Z,20.03
2019-04-13T02:21:19.948Z,19.60
2019-04-13T02:23:53.862Z,21.37
2019-04-13T02:26:29.844Z,19.63
2019-04-13T02:29:03.266Z,20.63
2019-04-13T02:31:37.673Z,19.43
2019-04-13T02:34:12.078Z,20.43
2019-04-13T02:36:44.636Z,22.37
2019-04-13T02:39:19.174Z,21.50
2019-04-13T02:41:54.402Z,21.83
2019-04-13T02:44:27.483Z,23.43
2019-04-13T02:47:02.062Z,23.20
2019-04-13T02:49:34.616Z,22.73
2019-04-13T02:52:10.662Z,22.03
2019-04-13T02:54:45.367Z,22.73
2019-04-13T02:57:18.813Z,22.73
2019-04-13T02:59:54.415Z,24.67
2019-04-13T03:02:27.322Z,23.57
2019-04-13T03:05:01.289Z,24.10
2019-04-13T03:07:36.016Z,22.60
2019-04-13T03:10:11.514Z,22.27
2019-04-13T03:12:45.803Z,24.03
2019-04-13T03:15:18.958Z,22.43
2019-04-13T03:18:01.004Z,22.20
2019-04-13T03:20:34.633Z,23.77
2019-04-13T03:23:08.920Z,21.60
2019-04-13T03:25:42.750Z,22.50
2019-04-13T03:28:15.270Z,23.40
2019-04-13T03:30:50.093Z,22.33
2019-04-13T03:33:25.864Z,22.27
2019-04-13T03:35:59.843Z,23.40
2019-04-13T03:38:33.310Z,22.27
2019-04-13T03:41:14.866Z,21.87
2019-04-13T03:43:48.076Z,23.93
2019-04-13T03:46:21.767Z,23.40
2019-04-13T03:48:56.639Z,23.40
2019-04-13T03:51:29.838Z,23.17
2019-04-13T03:54:02.323Z,24.27
2019-04-13T03:56:36.564Z,23.87
2019-04-13T03:59:11.323Z,24.80
2019-04-13T04:01:45.605Z,23.60
2019-04-13T04:04:19.379Z,23.63
2019-04-13T04:06:53.410Z,24.30
2019-04-13T04:09:28.111Z,24.00
2019-04-13T04:12:02.331Z,22.00
2019-04-13T04:14:36.791Z,22.80
2019-04-13T04:17:10.479Z,22.83
2019-04-13T04:19:44.247Z,21.77
2019-04-13T04:22:18.912Z,22.35
2019-04-13T04:24:51.991Z,22.40
2019-04-13T04:27:24.461Z,21.00
2019-04-13T04:29:58.952Z,19.97
2019-04-13T04:32:31.455Z,19.43
2019-04-13T04:35:06.960Z,19.43
2019-04-13T04:37:42.289Z,20.83
2019-04-13T04:40:15.026Z,22.75
2019-04-13T04:42:49.489Z,20.60
2019-04-13T04:45:23.909Z,20.70
2019-04-13T04:48:00.466Z,20.80
2019-04-13T04:50:38.066Z,21.95
2019-04-13T04:53:12.202Z,19.87
2019-04-13T04:55:45.775Z,18.87
2019-04-13T04:58:30.123Z,19.27
2019-04-13T05:01:02.843Z,18.23
2019-04-13T05:03:37.667Z,17.90
2019-04-13T05:06:12.698Z,18.10
2019-04-13T05:08:46.526Z,18.77
2019-04-13T05:11:20.728Z,19.03
2019-04-13T05:13:56.798Z,18.60
2019-04-13T05:16:31.306Z,18.43
2019-04-13T05:19:10.057Z,19.23
2019-04-13T05:21:42.709Z,17.43
2019-04-13T05:24:15.323Z,17.83
2019-04-13T05:26:48.286Z,18.43
2019-04-13T05:29:23.450Z,18.33
2019-04-13T05:31:58.495Z,17.63
2019-04-13T05:34:31.324Z,19.08
2019-04-13T05:37:04.641Z,18.10
2019-04-13T05:39:38.940Z,17.70
2019-04-13T05:42:14.518Z,18.42
2019-04-13T05:44:47.789Z,18.90
2019-04-13T05:47:21.983Z,18.80
2019-04-13T05:49:57.540Z,18.08
2019-04-13T05:52:30.963Z,17.33
2019-04-13T05:55:06.769Z,17.20
2019-04-13T05:57:40.314Z,17.13
2019-04-13T06:00:15.897Z,17.37
2019-04-13T06:03:00.337Z,18.37
2019-04-13T06:05:32.958Z,18.63
2019-04-13T06:08:08.945Z,17.67
2019-04-13T06:10:42.529Z,18.97
2019-04-13T06:13:17.343Z,17.70
2019-04-13T06:15:50.323Z,19.00
2019-04-13T06:18:23.569Z,18.67
2019-04-13T06:20:56.909Z,19.80
2019-04-13T06:23:31.625Z,18.70
2019-04-13T06:26:06.504Z,18.97
2019-04-13T06:28:48.653Z,19.10
2019-04-13T06:31:49.402Z,19.07
2019-04-13T06:34:39.800Z,20.75
2019-04-13T06:37:13.389Z,19.40
2019-04-13T06:39:47.872Z,19.70
2019-04-13T06:42:20.676Z,18.63
2019-04-13T06:44:55.882Z,19.17
2019-04-13T06:47:32.383Z,19.30
2019-04-13T06:50:08.963Z,20.50
2019-04-13T06:52:45.215Z,19.57
2019-04-13T06:55:20.438Z,19.67
2019-04-13T06:58:00.840Z,20.00
2019-04-13T07:00:33.584Z,19.37
2019-04-13T07:03:06.683Z,18.17
2019-04-13T07:05:42.293Z,17.67
2019-04-13T07:08:38.378Z,17.07
2019-04-13T07:11:28.899Z,17.45
2019-04-13T07:14:03.653Z,17.60
2019-04-13T07:16:44.152Z,16.53
2019-04-13T07:19:18.208Z,15.93
2019-04-13T07:21:53.187Z,16.63
2019-04-13T07:24:29.635Z,14.70
2019-04-13T07:27:10.049Z,15.07
2019-04-13T07:29:43.989Z,15.63
2019-04-13T07:32:19.812Z,14.60
2019-04-13T07:34:53.361Z,15.00
2019-04-13T07:37:36.631Z,14.00
2019-04-13T07:40:13.639Z,13.47
2019-04-13T07:42:48.097Z,13.07
2019-04-13T07:45:31.627Z,12.00
2019-04-13T07:48:16.993Z,11.60
2019-04-13T07:51:01.718Z,11.73
2019-04-13T07:53:37.212Z,10.70
2019-04-13T07:56:09.809Z,9.77
2019-04-13T07:58:47.089Z,9.93
2019-04-13T08:01:23.271Z,9.10
2019-04-13T08:03:56.783Z,8.70
2019-04-13T08:06:31.727Z,9.38
2019-04-13T08:09:06.167Z,8.07
2019-04-13T08:11:38.737Z,7.60
2019-04-13T08:14:18.347Z,7.87
2019-04-13T08:16:50.896Z,7.90
2019-04-13T08:19:24.627Z,8.53
2019-04-13T08:21:58.969Z,7.50
2019-04-13T08:24:33.727Z,8.27
2019-04-13T08:27:07.650Z,8.07
2019-04-13T08:29:44.364Z,8.43
2019-04-13T08:32:17.948Z,7.67
2019-04-13T08:34:50.874Z,7.30
2019-04-13T08:37:23.792Z,7.72
2019-04-13T08:40:02.529Z,6.97
2019-04-13T08:42:35.626Z,7.37
2019-04-13T08:45:12.663Z,8.03
2019-04-13T08:47:46.027Z,8.87
2019-04-13T08:50:19.592Z,10.30
2019-04-13T08:52:52.506Z,9.40
2019-04-13T08:55:25.864Z,7.33
2019-04-13T08:57:59.174Z,8.47
2019-04-13T09:00:33.291Z,9.30
2019-04-13T09:03:06.171Z,9.30
2019-04-13T09:05:38.759Z,9.37
2019-04-13T09:08:12.900Z,9.87
2019-04-13T09:10:57.952Z,10.70
2019-04-13T09:13:32.640Z,11.27
2019-04-13T09:16:06.512Z,10.73
2019-04-13T09:19:22.951Z,10.90
2019-04-13T09:22:20.694Z,11.07
2019-04-13T09:24:55.131Z,10.80
2019-04-13T09:27:30.942Z,10.57
2019-04-13T09:30:15.001Z,11.33
2019-04-13T09:32:47.746Z,11.03
2019-04-13T09:35:25.300Z,12.03
2019-04-13T09:37:58.987Z,12.30
2019-04-13T09:40:31.621Z,12.43
2019-04-13T09:43:21.347Z,12.37
2019-04-13T09:45:55.045Z,10.00
2019-04-13T09:48:28.105Z,9.33
2019-04-13T09:51:00.778Z,8.80
2019-04-13T09:53:33.306Z,9.50
2019-04-13T09:56:07.007Z,9.90
2019-04-13T09:58:39.564Z,9.57
2019-04-13T10:01:12.091Z,9.17
2019-04-13T10:03:46.350Z,9.43
2019-04-13T10:06:19.110Z,9.80
2019-04-13T10:08:56.086Z,9.20
2019-04-13T10:11:36.457Z,11.15
2019-04-13T10:14:19.591Z,12.02
2019-04-13T10:16:59.931Z,12.20
2019-04-13T10:19:34.576Z,11.00
2019-04-13T10:22:07.319Z,12.10
2019-04-13T10:24:40.169Z,11.90
2019-04-13T10:27:13.171Z,11.70
2019-04-13T10:29:49.633Z,10.47
2019-04-13T10:32:23.465Z,11.15
2019-04-13T10:34:56.507Z,10.80
2019-04-13T10:37:29.229Z,10.30
2019-04-13T10:40:01.862Z,11.40
2019-04-13T10:42:36.795Z,10.90
2019-04-13T10:45:31.223Z,10.93
2019-04-13T10:48:36.352Z,11.07
2019-04-13T10:51:21.840Z,9.73
2019-04-13T10:53:56.940Z,11.40
2019-04-13T10:56:29.850Z,10.80
2019-04-13T10:59:02.458Z,9.03
2019-04-13T11:01:36.129Z,8.80
2019-04-13T11:04:09.227Z,8.30
2019-04-13T11:06:41.899Z,9.07
2019-04-13T11:09:21.291Z,8.40
2019-04-13T11:11:54.730Z,8.70
2019-04-13T11:14:29.850Z,9.15
2019-04-13T11:17:06.557Z,8.20
2019-04-13T11:19:41.419Z,8.80
2019-04-13T11:22:21.566Z,8.60
2019-04-13T11:24:55.113Z,8.07
2019-04-13T11:27:28.115Z,8.10
2019-04-13T11:30:08.063Z,8.37
2019-04-13T11:32:41.638Z,8.87
2019-04-13T11:35:15.818Z,10.40
2019-04-13T11:37:48.935Z,10.30
2019-04-13T11:40:22.104Z,10.13
2019-04-13T11:43:02.442Z,10.50
2019-04-13T11:45:41.898Z,9.30
2019-04-13T11:48:22.302Z,9.15
2019-04-13T11:50:59.655Z,9.77
2019-04-13T11:53:33.105Z,10.90
2019-04-13T11:56:06.902Z,9.67
2019-04-13T11:58:39.502Z,9.63
2019-04-13T12:01:30.135Z,10.30
2019-04-13T12:04:14.008Z,9.83
2019-04-13T12:07:25.071Z,9.77
2019-04-13T12:10:21.775Z,8.67
2019-04-13T12:13:20.473Z,8.93
2019-04-13T12:16:08.224Z,10.07
2019-04-13T12:18:46.615Z,7.90
2019-04-13T12:21:42.445Z,7.60
2019-04-13T12:24:21.606Z,6.57
2019-04-13T12:26:55.616Z,7.37
2019-04-13T12:29:31.620Z,6.77
2019-04-13T12:32:14.080Z,7.77
2019-04-13T12:34:48.185Z,7.27
2019-04-13T12:37:21.092Z,7.33
2019-04-13T12:40:12.330Z,7.53
2019-04-13T12:42:45.442Z,7.70
2019-04-13T12:45:18.484Z,7.87
2019-04-13T12:47:54.763Z,8.00
2019-04-13T12:50:33.206Z,7.50
2019-04-13T12:53:10.268Z,7.90
2019-04-13T12:55:42.908Z,7.53
2019-04-13T12:58:22.890Z,7.53
2019-04-13T13:01:12.527Z,7.20
2019-04-13T13:03:46.348Z,7.77
2019-04-13T13:06:25.359Z,10.10
2019-04-13T13:09:00.137Z,11.00
2019-04-13T13:11:34.448Z,10.23
2019-04-13T13:14:08.284Z,10.13
2019-04-13T13:16:46.100Z,9.43
2019-04-13T13:19:19.204Z,9.23
2019-04-13T13:21:52.146Z,8.80
2019-04-13T13:24:24.871Z,6.97
2019-04-13T13:27:02.072Z,6.77
2019-04-13T13:29:35.920Z,6.30
2019-04-13T13:32:08.727Z,5.90
2019-04-13T13:34:43.842Z,6.07
2019-04-13T13:37:16.636Z,6.33
2019-04-13T13:39:50.723Z,6.77
2019-04-13T13:42:23.557Z,6.73
2019-04-13T13:44:56.719Z,6.00
2019-04-13T13:47:32.467Z,5.77
2019-04-13T13:50:07.897Z,5.67
2019-04-13T13:52:40.592Z,5.80
2019-04-13T13:55:14.271Z,6.20
2019-04-13T13:57:53.631Z,6.17
2019-04-13T14:00:40.788Z,6.68
2019-04-13T14:03:13.729Z,6.45
2019-04-13T14:05:48.324Z,6.60
2019-04-13T14:08:21.830Z,6.60
2019-04-13T14:10:54.803Z,6.43
2019-04-13T14:13:29.767Z,6.43
2019-04-13T14:16:02.670Z,5.83
2019-04-13T14:18:35.630Z,6.13
2019-04-13T14:21:15.502Z,5.60
2019-04-13T14:23:58.306Z,5.83
2019-04-13T14:26:37.295Z,5.37
2019-04-13T14:29:11.379Z,5.70
2019-04-13T14:31:44.220Z,5.67
2019-04-13T14:34:17.647Z,5.13
2019-04-13T14:36:50.991Z,5.40
2019-04-13T14:39:23.767Z,6.05
2019-04-13T14:41:58.890Z,5.37
2019-04-13T14:44:33.419Z,5.17
2019-04-13T14:47:11.581Z,5.53
2019-04-13T14:49:48.871Z,5.93
2019-04-13T14:52:26.645Z,6.22
2019-04-13T14:55:02.564Z,5.60
2019-04-13T14:57:39.659Z,5.50
2019-04-13T15:00:21.086Z,5.47
2019-04-13T15:03:00.197Z,6.20
2019-04-13T15:05:33.784Z,5.73
2019-04-13T15:08:10.660Z,5.60
2019-04-13T15:10:46.991Z,6.17
2019-04-13T15:13:23.401Z,5.90
2019-04-13T15:15:57.525Z,5.17
2019-04-13T15:18:50.261Z,6.00
2019-04-13T15:21:37.728Z,6.63
2019-04-13T15:24:21.017Z,6.33
2019-04-13T15:26:54.283Z,6.50
2019-04-13T15:29:40.563Z,5.57
2019-04-13T15:32:22.850Z,5.70
2019-04-13T15:34:57.895Z,5.70
2019-04-13T15:37:43.024Z,6.07
2019-04-13T15:40:23.427Z,6.00
2019-04-13T15:43:04.587Z,6.80
2019-04-13T15:45:48.991Z,7.47
2019-04-13T15:48:25.945Z,8.77
2019-04-13T15:51:06.013Z,8.70
2019-04-13T15:53:45.161Z,8.60
2019-04-13T15:56:19.512Z,8.93
2019-04-13T15:58:55.331Z,8.67
2019-04-13T16:01:32.654Z,8.87
2019-04-13T16:04:05.811Z,8.67
2019-04-13T16:06:46.354Z,9.43
2019-04-13T16:09:49.774Z,9.20
2019-04-13T16:12:25.555Z,8.73
2019-04-13T16:14:59.545Z,9.80
2019-04-13T16:17:33.791Z,9.23
2019-04-13T16:20:07.622Z,8.57
2019-04-13T16:22:42.958Z,10.85
2019-04-13T16:25:16.849Z,11.53
2019-04-13T16:28:04.314Z,12.87
2019-04-13T16:30:57.977Z,8.77
2019-04-13T16:33:52.700Z,9.20
2019-04-13T16:36:33.307Z,8.73
2019-04-13T16:39:13.457Z,9.77
2019-04-13T16:42:02.680Z,9.77
2019-04-13T16:44:47.056Z,9.50
2019-04-13T16:47:39.488Z,10.10
2019-04-13T16:50:33.084Z,9.67
2019-04-13T16:53:28.757Z,9.30
2019-04-13T16:56:12.411Z,7.57
2019-04-13T16:58:57.947Z,7.43
2019-04-13T17:01:45.956Z,7.63
2019-04-13T17:04:31.153Z,8.40
2019-04-13T17:07:09.165Z,7.80
2019-04-13T17:16:16.996Z,9.30
2019-04-13T17:19:03.373Z,9.00
2019-04-13T17:21:58.807Z,9.77
2019-04-13T17:24:51.526Z,10.90
2019-04-13T17:27:30.157Z,10.33
2019-04-13T17:30:13.265Z,11.40
2019-04-13T17:32:54.181Z,10.77
2019-04-13T17:36:02.655Z,11.13
2019-04-13T17:38:55.809Z,12.60
2019-04-13T17:41:40.981Z,10.77
2019-04-13T17:44:24.592Z,12.37
2019-04-13T17:47:16.664Z,11.60
2019-04-13T17:49:57.198Z,11.00
2019-04-13T17:52:55.002Z,11.50
2019-04-13T17:55:39.770Z,11.63
2019-04-13T17:58:33.325Z,12.67
2019-04-13T18:01:33.186Z,13.03
2019-04-13T18:04:45.749Z,14.02
2019-04-13T18:07:43.558Z,12.37
2019-04-13T18:10:32.758Z,12.90
2019-04-13T18:13:45.213Z,12.57
2019-04-13T18:16:32.195Z,12.93
2019-04-13T18:19:14.686Z,14.02
2019-04-13T18:21:55.774Z,12.80
2019-04-13T18:24:38.937Z,13.03
2019-04-13T18:27:13.329Z,14.50
2019-04-13T18:29:57.147Z,14.33
2019-04-13T18:32:42.797Z,14.43
2019-04-13T18:35:19.051Z,15.85
2019-04-13T18:37:52.190Z,14.77
2019-04-13T18:40:24.955Z,16.40
2019-04-13T18:43:09.201Z,16.17
2019-04-13T18:45:49.438Z,17.80
2019-04-13T18:48:22.884Z,16.90
2019-04-13T18:50:56.241Z,19.30
2019-04-13T18:53:29.968Z,19.97
2019-04-13T18:56:10.263Z,20.67
2019-04-13T18:58:47.896Z,21.33
2019-04-13T19:01:28.916Z,21.23
2019-04-13T19:04:05.037Z,20.60
2019-04-13T19:06:39.316Z,21.50
2019-04-13T19:09:20.474Z,22.33
2019-04-13T19:12:01.750Z,21.63
2019-04-13T19:14:35.569Z,22.95
2019-04-13T19:17:15.277Z,23.33
2019-04-13T19:19:48.630Z,24.08
2019-04-13T19:22:21.570Z,22.27
2019-04-13T19:24:54.272Z,21.80
2019-04-13T19:27:28.096Z,22.40
2019-04-13T19:30:05.204Z,23.75
2019-04-13T19:32:43.763Z,22.23
2019-04-13T19:35:21.849Z,23.97
2019-04-13T19:37:56.018Z,24.10
2019-04-13T19:40:29.637Z,23.77
2019-04-13T19:43:02.377Z,24.58
2019-04-13T19:45:35.447Z,24.83
2019-04-13T19:48:09.411Z,22.43
2019-04-13T19:50:42.863Z,24.30
2019-04-13T19:53:25.445Z,24.30
2019-04-13T19:56:06.278Z,22.87
2019-04-13T19:58:39.988Z,25.45
2019-04-13T20:01:16.503Z,23.70
2019-04-13T20:04:05.746Z,22.43
2019-04-13T20:06:42.766Z,22.60
2019-04-13T20:09:16.089Z,22.40
2019-04-13T20:11:48.727Z,24.20
2019-04-13T20:14:22.858Z,25.77
2019-04-13T20:16:56.351Z,24.77
2019-04-13T20:19:29.119Z,26.23
2019-04-13T20:22:03.003Z,27.13
2019-04-13T20:24:39.968Z,27.20
2019-04-13T20:27:15.259Z,25.87
2019-04-13T20:29:48.897Z,26.77
2019-04-13T20:32:23.114Z,26.70
2019-04-13T20:34:57.731Z,27.90
2019-04-13T20:37:33.843Z,25.77
2019-04-13T20:40:24.803Z,24.47
2019-04-13T20:42:59.097Z,25.20
2019-04-13T20:45:33.895Z,25.13
2019-04-13T20:48:12.335Z,26.60
2019-04-13T20:50:50.169Z,25.23
2019-04-13T20:53:24.885Z,26.13
2019-04-13T20:55:58.913Z,24.63
2019-04-13T20:58:32.113Z,25.60
2019-04-13T21:01:08.250Z,27.77
2019-04-13T21:03:44.750Z,27.63
2019-04-13T21:06:28.333Z,26.43
2019-04-13T21:09:02.941Z,27.67
2019-04-13T21:11:42.075Z,28.30
2019-04-13T21:14:25.180Z,29.90
2019-04-13T21:17:02.910Z,29.13
2019-04-13T21:19:37.063Z,28.10
2019-04-13T21:22:11.570Z,28.47
2019-04-13T21:24:45.835Z,28.67
2019-04-13T21:27:20.512Z,27.50
2019-04-13T21:29:56.771Z,30.70
2019-04-13T21:32:35.707Z,32.03
2019-04-13T21:35:14.278Z,30.53
2019-04-13T21:37:48.744Z,31.50
2019-04-13T21:40:27.337Z,31.40
2019-04-13T21:43:02.052Z,33.87
2019-04-13T21:45:36.433Z,32.77
2019-04-13T21:48:11.639Z,35.33
2019-04-13T21:50:58.787Z,35.87
2019-04-13T21:53:38.206Z,35.33
2019-04-13T21:56:12.269Z,35.50
2019-04-13T21:58:49.533Z,34.10
2019-04-13T22:01:58.395Z,33.90
2019-04-13T22:04:32.713Z,37.37
2019-04-13T22:07:07.201Z,38.95
2019-04-13T22:09:41.261Z,36.97
2019-04-13T22:12:15.474Z,35.50
2019-04-13T22:14:56.689Z,35.07
2019-04-13T22:17:33.863Z,33.43
2019-04-13T22:20:08.020Z,35.07
2019-04-13T22:22:41.035Z,34.73
2019-04-13T22:25:14.546Z,35.73
2019-04-13T22:27:55.681Z,34.57
2019-04-13T22:30:45.180Z,34.63
2019-04-13T22:33:17.653Z,35.63
2019-04-13T22:35:58.542Z,34.13
2019-04-13T22:38:31.015Z,34.67
2019-04-13T22:41:04.895Z,33.63
2019-04-13T22:43:39.833Z,33.60
2019-04-13T22:46:13.059Z,35.97
2019-04-13T22:49:10.645Z,37.00
2019-04-13T22:52:06.460Z,36.87
2019-04-13T22:54:47.858Z,37.78
2019-04-13T22:57:30.460Z,36.90
2019-04-13T23:00:14.726Z,33.83
2019-04-13T23:02:51.867Z,33.37
2019-04-13T23:05:24.683Z,33.67
2019-04-13T23:08:00.920Z,32.87
2019-04-13T23:10:33.497Z,32.80
2019-04-13T23:13:06.219Z,34.50
2019-04-13T23:15:41.028Z,36.47
2019-04-13T23:18:16.963Z,36.03
2019-04-13T23:20:49.662Z,35.47
2019-04-13T23:23:24.400Z,35.00
2019-04-13T23:25:57.312Z,36.13
2019-04-13T23:28:32.077Z,35.83
2019-04-13T23:31:06.313Z,35.17
2019-04-13T23:33:39.077Z,35.10
2019-04-13T23:36:13.598Z,34.40
2019-04-13T23:38:46.815Z,33.87
2019-04-13T23:41:19.437Z,34.90
2019-04-13T23:43:51.955Z,35.63
2019-04-13T23:46:27.009Z,33.83
2019-04-13T23:48:59.519Z,32.57
2019-04-13T23:51:33.953Z,32.93
2019-04-13T23:54:08.619Z,33.43
2019-04-13T23:56:56.368Z,35.13
2019-04-13T23:59:37.148Z,34.70
